BDL weather

Bradley International Airport
Hartford, Connecticut, United States

Public forecast

Using degrees Fahrenheit for public forecast. Weather courtesy of forecast.io.

Current aviation weather report (METAR) for Bradley International Airport

Retrieved 2019/11/17 05:51 UTC (46 minutes ago):

KBDL 170551Z 36005KT 10SM FEW250 M05/M16 A3048 RMK AO2 SLP324 T10501161 11017 21050 56007

Aviation forecast (TAF) for Bradley International Airport

Retrieved 2019/11/17 06:36 UTC (46 seconds ago):

TAF KBDL 170533Z 1706/1812 01007KT P6SM SKC FM171500 02009KT P6SM BKN200 FM171900 02009KT P6SM BKN025 FM180300 01010KT P6SM OVC020 FM180600 01010KT P6SM VCSH OVC010 FM181000 01011G20KT P6SM VCSH OVC010